Time;durP1;ratioP1;P1;durP2;ratioP2;P2;SDS_P1;SDS_P2;PMS_P1;PMS_P2;Temp;Humidity;BMP_temperature;BMP_pressure;BME280_temperature;BME280_humidity;BME280_pressure;Samples;Min_cycle;Max_cycle;Signal;HPM_P1;HPM_P2
2022/07/27 00:02:09;;;;;;;5.82;1.52;;;;;;;;;;5056736;28;20187;-67
2022/07/27 00:04:34;;;;;;;6.65;1.67;;;;;;;;;;5056312;28;20203;-67
2022/07/27 00:07:00;;;;;;;4.45;1.40;;;;;;;;;;5060725;28;20251;-67
2022/07/27 00:09:25;;;;;;;5.28;1.40;;;;;;;;;;5062622;28;20371;-67
2022/07/27 00:11:51;;;;;;;3.80;1.60;;;;;;;;;;5067578;28;20204;-67
2022/07/27 00:14:16;;;;;;;5.45;1.10;;;;;;;;;;5059932;28;20196;-67
2022/07/27 00:16:41;;;;;;;4.47;1.20;;;;;;;;;;5056658;28;20241;-67
2022/07/27 00:19:07;;;;;;;3.60;1.40;;;;;;;;;;5053268;28;20181;-68
2022/07/27 00:21:32;;;;;;;2.10;1.10;;;;;;;;;;5061396;28;20264;-67
2022/07/27 00:23:58;;;;;;;4.15;1.20;;;;;;;;;;5053103;28;20320;-68
2022/07/27 00:26:23;;;;;;;5.70;1.25;;;;;;;;;;5060945;28;20269;-67
2022/07/27 00:28:49;;;;;;;3.88;1.20;;;;;;;;;;5068223;28;20226;-67
2022/07/27 00:31:15;;;;;;;4.50;1.00;;;;;;;;;;5050314;28;20558;-68
2022/07/27 00:33:40;;;;;;;6.13;1.33;;;;;;;;;;5054299;28;20520;-68
2022/07/27 00:36:06;;;;;;;3.40;1.00;;;;;;;;;;5059772;28;20188;-68
2022/07/27 00:38:31;;;;;;;6.43;1.83;;;;;;;;;;5057162;28;20239;-68
2022/07/27 00:40:56;;;;;;;3.80;1.30;;;;;;;;;;5051915;28;20220;-68
2022/07/27 00:43:22;;;;;;;6.45;1.40;;;;;;;;;;5065664;28;20180;-68
2022/07/27 00:45:47;;;;;;;3.58;1.40;;;;;;;;;;5054970;28;20184;-68
2022/07/27 00:48:12;;;;;;;3.42;1.10;;;;;;;;;;5056462;28;20189;-68
2022/07/27 00:50:41;;;;;;;2.00;1.15;;;;;;;;;;5050812;28;20216;-68
2022/07/27 00:53:08;;;;;;;5.85;1.65;;;;;;;;;;5055179;28;20193;-68
2022/07/27 00:55:34;;;;;;;4.55;1.27;;;;;;;;;;5064980;28;20180;-68
2022/07/27 00:58:00;;;;;;;7.32;1.92;;;;;;;;;;5059532;28;20177;-68
2022/07/27 01:00:29;;;;;;;4.22;1.60;;;;;;;;;;5052565;28;20251;-67
2022/07/27 01:02:54;;;;;;;8.25;1.67;;;;;;;;;;5052083;28;20208;-67
2022/07/27 01:05:19;;;;;;;5.60;2.00;;;;;;;;;;5056284;28;20182;-67
2022/07/27 01:07:45;;;;;;;4.00;1.35;;;;;;;;;;5051247;28;20457;-67
2022/07/27 01:10:10;;;;;;;4.85;2.45;;;;;;;;;;5048380;28;20208;-67
2022/07/27 01:12:36;;;;;;;6.78;2.63;;;;;;;;;;5064790;28;20291;-67
2022/07/27 01:15:01;;;;;;;5.50;1.70;;;;;;;;;;5059459;28;20193;-67
2022/07/27 01:17:30;;;;;;;6.05;1.60;;;;;;;;;;5064260;28;20181;-67
2022/07/27 01:19:57;;;;;;;9.35;1.85;;;;;;;;;;5061261;28;20177;-67
2022/07/27 01:22:22;;;;;;;4.03;1.60;;;;;;;;;;5057156;28;20648;-67
2022/07/27 01:24:49;;;;;;;4.80;1.50;;;;;;;;;;5060759;28;20259;-68
2022/07/27 01:27:14;;;;;;;5.15;1.65;;;;;;;;;;5054744;28;20181;-67
2022/07/27 01:29:40;;;;;;;2.53;1.52;;;;;;;;;;5057124;28;20746;-67
2022/07/27 01:32:06;;;;;;;7.10;1.73;;;;;;;;;;5059750;28;20205;-67
2022/07/27 01:34:32;;;;;;;6.57;1.70;;;;;;;;;;5060254;28;20180;-68
2022/07/27 01:36:58;;;;;;;4.50;1.70;;;;;;;;;;5056793;28;20664;-68
2022/07/27 01:39:24;;;;;;;6.35;1.85;;;;;;;;;;5059657;28;20177;-68
2022/07/27 01:41:49;;;;;;;5.63;1.85;;;;;;;;;;5053935;28;20543;-68
2022/07/27 01:44:14;;;;;;;7.05;1.90;;;;;;;;;;5051276;28;20673;-68
2022/07/27 01:46:40;;;;;;;3.22;1.70;;;;;;;;;;5050771;28;20268;-67
2022/07/27 01:49:05;;;;;;;5.00;1.38;;;;;;;;;;5065690;28;20200;-68
2022/07/27 01:51:31;;;;;;;4.75;1.88;;;;;;;;;;5050713;28;20238;-67
2022/07/27 01:53:56;;;;;;;6.10;2.05;;;;;;;;;;5060168;28;20208;-67
2022/07/27 01:56:22;;;;;;;7.15;1.67;;;;;;;;;;5051499;28;20215;-68
2022/07/27 01:58:47;;;;;;;5.35;1.70;;;;;;;;;;5060475;28;20208;-68
2022/07/27 02:01:13;;;;;;;6.45;1.90;;;;;;;;;;5047975;28;20189;-68
2022/07/27 02:03:38;;;;;;;6.20;1.80;;;;;;;;;;5048721;28;20242;-68
2022/07/27 02:06:04;;;;;;;4.80;2.20;;;;;;;;;;5052728;28;20192;-67
2022/07/27 02:08:30;;;;;;;5.63;1.83;;;;;;;;;;5064300;28;20220;-67
2022/07/27 02:13:42;;;;;;;2.25;1.67;;;;;;;;;;5050385;28;20272;-67
2022/07/27 02:16:07;;;;;;;5.53;2.10;;;;;;;;;;5049883;28;20653;-67
2022/07/27 02:18:33;;;;;;;4.20;1.90;;;;;;;;;;5067228;28;20246;-67
2022/07/27 02:20:58;;;;;;;4.18;1.83;;;;;;;;;;5061719;28;20192;-68
2022/07/27 02:23:23;;;;;;;9.98;1.67;;;;;;;;;;5057793;28;20220;-68
2022/07/27 02:25:49;;;;;;;5.38;2.30;;;;;;;;;;5060329;28;20232;-68
2022/07/27 02:28:14;;;;;;;7.28;1.98;;;;;;;;;;5068140;28;20191;-68
2022/07/27 02:30:39;;;;;;;4.43;2.40;;;;;;;;;;5066740;28;20200;-68
2022/07/27 02:33:05;;;;;;;4.88;2.30;;;;;;;;;;5060069;28;20193;-67
2022/07/27 02:35:30;;;;;;;6.25;2.35;;;;;;;;;;5061810;28;20196;-68
2022/07/27 02:37:55;;;;;;;4.57;2.03;;;;;;;;;;5055599;28;20196;-68
2022/07/27 02:40:21;;;;;;;4.25;2.05;;;;;;;;;;5058230;28;20188;-68
2022/07/27 02:42:47;;;;;;;9.43;2.40;;;;;;;;;;5052311;28;20185;-68
2022/07/27 02:45:16;;;;;;;5.53;2.58;;;;;;;;;;5052850;28;20300;-68
2022/07/27 02:47:42;;;;;;;4.22;2.38;;;;;;;;;;5059434;28;20251;-68
2022/07/27 02:50:08;;;;;;;4.45;1.92;;;;;;;;;;5054058;28;20209;-68
2022/07/27 02:52:34;;;;;;;6.25;2.10;;;;;;;;;;5066577;28;20181;-68
2022/07/27 02:54:59;;;;;;;6.30;1.90;;;;;;;;;;5065794;28;20188;-68
2022/07/27 02:57:25;;;;;;;10.48;2.15;;;;;;;;;;5051835;28;20223;-68
2022/07/27 02:59:50;;;;;;;5.43;2.05;;;;;;;;;;5055718;28;20678;-68
2022/07/27 03:02:15;;;;;;;4.38;1.73;;;;;;;;;;5055915;28;20579;-68
2022/07/27 03:04:41;;;;;;;7.80;2.20;;;;;;;;;;5052110;28;20208;-68
2022/07/27 03:07:07;;;;;;;7.35;2.92;;;;;;;;;;5056784;28;20212;-67
2022/07/27 03:09:33;;;;;;;3.60;1.95;;;;;;;;;;5062976;28;20201;-68
2022/07/27 03:11:58;;;;;;;5.35;2.10;;;;;;;;;;5063674;28;20189;-68
2022/07/27 03:14:24;;;;;;;2.28;1.83;;;;;;;;;;5060049;28;20177;-68
2022/07/27 03:16:49;;;;;;;2.22;1.85;;;;;;;;;;5066650;28;20208;-68
2022/07/27 03:19:15;;;;;;;3.40;2.00;;;;;;;;;;5063687;28;20184;-68
2022/07/27 03:21:40;;;;;;;5.70;2.08;;;;;;;;;;5061105;28;20223;-68
2022/07/27 03:24:06;;;;;;;5.75;2.10;;;;;;;;;;5060140;28;20821;-68
2022/07/27 03:26:32;;;;;;;4.53;1.73;;;;;;;;;;5051797;28;20191;-68
2022/07/27 03:28:57;;;;;;;4.88;2.20;;;;;;;;;;5055394;28;20295;-68
2022/07/27 03:31:23;;;;;;;2.60;1.90;;;;;;;;;;5060043;28;20284;-68
2022/07/27 03:33:48;;;;;;;7.13;2.65;;;;;;;;;;5064215;28;20178;-68
2022/07/27 03:36:13;;;;;;;4.68;1.83;;;;;;;;;;5058680;28;20193;-68
2022/07/27 03:38:39;;;;;;;6.35;1.95;;;;;;;;;;5058229;28;20181;-68
2022/07/27 03:41:05;;;;;;;4.25;1.98;;;;;;;;;;5059815;28;20214;-68
2022/07/27 03:43:31;;;;;;;3.83;1.70;;;;;;;;;;5063018;28;20648;-68
2022/07/27 03:45:56;;;;;;;5.60;2.15;;;;;;;;;;5056917;28;20185;-68
2022/07/27 03:48:22;;;;;;;4.47;1.60;;;;;;;;;;5054700;28;20185;-68
2022/07/27 03:50:47;;;;;;;5.68;2.05;;;;;;;;;;5058427;28;20201;-68
2022/07/27 03:53:12;;;;;;;6.28;2.50;;;;;;;;;;5058582;28;20550;-68
2022/07/27 03:55:38;;;;;;;5.88;2.72;;;;;;;;;;5052680;28;20649;-68
2022/07/27 03:58:03;;;;;;;4.20;2.78;;;;;;;;;;5063310;28;20605;-68
2022/07/27 04:00:28;;;;;;;5.75;2.38;;;;;;;;;;5055993;28;20691;-68
2022/07/27 04:02:53;;;;;;;6.43;2.40;;;;;;;;;;5054003;28;20181;-68
2022/07/27 04:05:19;;;;;;;6.63;2.90;;;;;;;;;;5053302;28;20192;-68
2022/07/27 04:07:45;;;;;;;5.70;3.28;;;;;;;;;;5061514;28;20184;-68
2022/07/27 04:10:10;;;;;;;6.72;3.47;;;;;;;;;;5059847;28;20205;-68
2022/07/27 04:12:37;;;;;;;6.65;2.90;;;;;;;;;;5056343;28;20943;-68
2022/07/27 04:15:04;;;;;;;6.68;2.72;;;;;;;;;;5058542;28;20389;-68
2022/07/27 04:17:30;;;;;;;8.05;3.20;;;;;;;;;;5062460;28;20181;-68
2022/07/27 04:19:55;;;;;;;5.65;2.88;;;;;;;;;;5054550;28;20647;-68
2022/07/27 04:22:20;;;;;;;7.07;2.95;;;;;;;;;;5051970;28;20223;-68
2022/07/27 04:24:46;;;;;;;10.90;2.80;;;;;;;;;;5058348;28;20281;-68
2022/07/27 04:27:12;;;;;;;5.03;2.67;;;;;;;;;;5059934;28;20601;-66
2022/07/27 04:29:37;;;;;;;5.85;2.25;;;;;;;;;;5057257;28;20295;-66
2022/07/27 04:32:02;;;;;;;4.88;2.45;;;;;;;;;;5058586;28;20219;-66
2022/07/27 04:34:28;;;;;;;6.22;2.75;;;;;;;;;;5057473;28;20743;-67
2022/07/27 04:36:53;;;;;;;11.15;2.53;;;;;;;;;;5050146;28;20200;-67
2022/07/27 04:39:19;;;;;;;4.30;2.28;;;;;;;;;;5061165;28;20234;-67
2022/07/27 04:41:44;;;;;;;5.45;2.40;;;;;;;;;;5051486;28;20643;-67
2022/07/27 04:44:09;;;;;;;7.07;2.47;;;;;;;;;;5049127;28;20181;-67
2022/07/27 04:46:35;;;;;;;7.07;2.33;;;;;;;;;;5060763;28;20207;-67
2022/07/27 04:49:00;;;;;;;7.10;2.58;;;;;;;;;;5060119;28;20216;-67
2022/07/27 04:51:25;;;;;;;6.95;2.42;;;;;;;;;;5055196;28;20283;-67
2022/07/27 04:53:51;;;;;;;7.20;2.67;;;;;;;;;;5056089;28;20188;-67
2022/07/27 04:56:16;;;;;;;9.18;2.53;;;;;;;;;;5057236;28;20801;-67
2022/07/27 04:58:42;;;;;;;7.80;2.20;;;;;;;;;;5055908;28;20189;-67
2022/07/27 05:01:10;;;;;;;9.15;2.35;;;;;;;;;;5054162;28;20185;-67
2022/07/27 05:03:36;;;;;;;6.22;2.08;;;;;;;;;;5052094;28;20181;-67
2022/07/27 05:06:01;;;;;;;3.53;1.83;;;;;;;;;;5053930;28;20198;-67
2022/07/27 05:08:27;;;;;;;7.70;2.05;;;;;;;;;;5063571;28;20195;-67
2022/07/27 05:10:52;;;;;;;8.60;2.10;;;;;;;;;;5054721;28;20213;-67
2022/07/27 05:13:18;;;;;;;3.97;2.13;;;;;;;;;;5059213;28;20190;-66
2022/07/27 05:15:43;;;;;;;7.32;1.80;;;;;;;;;;5054253;28;20208;-67
2022/07/27 05:18:08;;;;;;;3.83;1.77;;;;;;;;;;5052764;28;20177;-66
2022/07/27 05:20:33;;;;;;;6.28;2.22;;;;;;;;;;5051287;28;20177;-67
2022/07/27 05:22:59;;;;;;;4.57;1.90;;;;;;;;;;5062484;28;20185;-67
2022/07/27 05:25:24;;;;;;;4.28;1.73;;;;;;;;;;5061294;28;20251;-68
2022/07/27 05:27:50;;;;;;;7.63;2.90;;;;;;;;;;5055334;28;20200;-68
2022/07/27 05:30:16;;;;;;;6.43;1.83;;;;;;;;;;5058444;28;20201;-67
2022/07/27 05:32:41;;;;;;;4.00;1.75;;;;;;;;;;5061709;28;20566;-67
2022/07/27 05:35:07;;;;;;;6.88;2.38;;;;;;;;;;5050108;28;20223;-67
2022/07/27 05:37:32;;;;;;;4.43;1.55;;;;;;;;;;5055500;28;20185;-68
2022/07/27 05:39:58;;;;;;;7.55;1.75;;;;;;;;;;5055058;28;20173;-68
2022/07/27 05:42:23;;;;;;;6.38;1.80;;;;;;;;;;5060147;28;20657;-68
2022/07/27 05:44:52;;;;;;;8.63;1.80;;;;;;;;;;5053949;28;20188;-67
2022/07/27 05:47:18;;;;;;;5.25;1.50;;;;;;;;;;5057511;28;20253;-67
2022/07/27 05:49:43;;;;;;;7.78;1.88;;;;;;;;;;5055286;28;20668;-66
2022/07/27 05:52:08;;;;;;;4.57;1.27;;;;;;;;;;5046743;28;20230;-66
2022/07/27 05:54:34;;;;;;;4.32;1.83;;;;;;;;;;5051620;28;20252;-65
2022/07/27 05:56:59;;;;;;;7.40;1.38;;;;;;;;;;5063910;28;20484;-67
2022/07/27 05:59:25;;;;;;;4.78;1.25;;;;;;;;;;5056669;28;20368;-67
2022/07/27 06:01:50;;;;;;;7.45;1.77;;;;;;;;;;5053266;28;20212;-66
2022/07/27 06:04:15;;;;;;;8.23;1.40;;;;;;;;;;5058805;28;20205;-65
2022/07/27 06:09:24;;;;;;;6.13;1.13;;;;;;;;;;5062610;28;20220;-66
2022/07/27 06:11:50;;;;;;;4.93;1.08;;;;;;;;;;5055268;28;20704;-66
2022/07/27 06:14:15;;;;;;;4.38;1.52;;;;;;;;;;5039989;28;20264;-66
2022/07/27 06:16:40;;;;;;;4.68;1.10;;;;;;;;;;5055153;28;20239;-67
2022/07/27 06:19:06;;;;;;;8.43;1.23;;;;;;;;;;5054713;28;20187;-66
2022/07/27 06:21:31;;;;;;;4.70;0.93;;;;;;;;;;5054277;28;20603;-65
2022/07/27 06:23:57;;;;;;;5.13;1.15;;;;;;;;;;5056939;28;20600;-64
2022/07/27 06:26:22;;;;;;;6.85;2.00;;;;;;;;;;5055945;28;20212;-64
2022/07/27 06:28:48;;;;;;;8.32;1.38;;;;;;;;;;5052562;28;20177;-64
2022/07/27 06:31:13;;;;;;;4.75;1.00;;;;;;;;;;5059953;28;20212;-65
2022/07/27 06:33:39;;;;;;;4.78;1.20;;;;;;;;;;5055098;28;20231;-65
2022/07/27 06:36:07;;;;;;;7.03;1.30;;;;;;;;;;5058547;28;20181;-65
2022/07/27 06:38:32;;;;;;;4.78;1.17;;;;;;;;;;5052959;28;20275;-65
2022/07/27 06:40:57;;;;;;;4.75;1.23;;;;;;;;;;5059830;28;20680;-65
2022/07/27 06:43:25;;;;;;;4.43;1.05;;;;;;;;;;5057343;28;20621;-65
2022/07/27 06:45:55;;;;;;;4.45;0.73;;;;;;;;;;5056475;28;20234;-66
2022/07/27 06:48:20;;;;;;;4.53;1.00;;;;;;;;;;5058540;28;20185;-68
2022/07/27 06:50:47;;;;;;;5.50;0.93;;;;;;;;;;5062572;28;20235;-65
2022/07/27 06:53:13;;;;;;;6.55;1.23;;;;;;;;;;5052524;28;20189;-66
2022/07/27 06:55:38;;;;;;;6.68;1.42;;;;;;;;;;5059372;28;20181;-66
2022/07/27 06:58:04;;;;;;;5.80;1.20;;;;;;;;;;5060338;28;20177;-66
2022/07/27 07:00:30;;;;;;;6.22;1.20;;;;;;;;;;5057423;28;20308;-65
2022/07/27 07:02:57;;;;;;;5.07;1.15;;;;;;;;;;5060563;28;20226;-66
2022/07/27 07:05:23;;;;;;;8.00;0.93;;;;;;;;;;5054204;28;20169;-66
2022/07/27 07:07:48;;;;;;;9.38;1.50;;;;;;;;;;5054090;28;20200;-69
2022/07/27 07:10:14;;;;;;;6.72;1.48;;;;;;;;;;5050080;28;20288;-66
2022/07/27 07:12:40;;;;;;;7.45;1.35;;;;;;;;;;5052080;28;20195;-66
2022/07/27 07:15:06;;;;;;;7.10;1.13;;;;;;;;;;5058204;28;20177;-66
2022/07/27 07:17:32;;;;;;;7.22;1.05;;;;;;;;;;5056229;28;20267;-66
2022/07/27 07:19:58;;;;;;;2.30;1.00;;;;;;;;;;5054100;28;20350;-66
2022/07/27 07:22:24;;;;;;;2.80;1.00;;;;;;;;;;5054663;28;20188;-65
2022/07/27 07:24:50;;;;;;;6.15;1.10;;;;;;;;;;5053165;28;20340;-66
2022/07/27 07:27:18;;;;;;;3.55;1.27;;;;;;;;;;5052548;28;20700;-66
2022/07/27 07:29:43;;;;;;;6.47;1.20;;;;;;;;;;5055473;28;20194;-66
2022/07/27 07:32:09;;;;;;;4.57;1.10;;;;;;;;;;5052764;28;20204;-65
2022/07/27 07:34:34;;;;;;;7.00;1.48;;;;;;;;;;5048426;28;20247;-65
2022/07/27 07:36:59;;;;;;;7.10;1.60;;;;;;;;;;5057720;28;20180;-65
2022/07/27 07:39:24;;;;;;;7.40;1.17;;;;;;;;;;5052108;28;20541;-66
2022/07/27 07:41:51;;;;;;;5.00;1.55;;;;;;;;;;5051700;28;20188;-65
2022/07/27 07:44:17;;;;;;;5.65;1.35;;;;;;;;;;5054014;28;20184;-66
2022/07/27 07:46:42;;;;;;;8.13;1.40;;;;;;;;;;5059057;28;20525;-66
2022/07/27 07:49:09;;;;;;;9.57;1.20;;;;;;;;;;5052250;28;20270;-66
2022/07/27 07:51:34;;;;;;;8.80;1.40;;;;;;;;;;5053231;28;20181;-66
2022/07/27 07:54:00;;;;;;;6.47;1.50;;;;;;;;;;5052578;28;20195;-67
2022/07/27 07:56:25;;;;;;;5.63;1.30;;;;;;;;;;5052982;28;20689;-66
2022/07/27 07:58:50;;;;;;;5.47;0.88;;;;;;;;;;5050032;28;20644;-66
2022/07/27 08:01:16;;;;;;;8.85;1.10;;;;;;;;;;5054954;28;20181;-65
2022/07/27 08:03:41;;;;;;;2.40;1.00;;;;;;;;;;5052186;28;20613;-67
2022/07/27 08:06:07;;;;;;;7.15;1.27;;;;;;;;;;5048424;28;20185;-66
2022/07/27 08:08:32;;;;;;;4.63;1.10;;;;;;;;;;5052667;28;20272;-65
2022/07/27 08:10:57;;;;;;;5.68;1.30;;;;;;;;;;5051926;28;20216;-66
2022/07/27 08:13:23;;;;;;;8.73;1.33;;;;;;;;;;5057172;28;20181;-66
2022/07/27 08:15:51;;;;;;;9.15;1.35;;;;;;;;;;5057254;28;20172;-66
2022/07/27 08:18:16;;;;;;;8.00;1.33;;;;;;;;;;5052514;28;20216;-66
2022/07/27 08:20:41;;;;;;;6.10;1.10;;;;;;;;;;5053414;28;20235;-67
2022/07/27 08:23:07;;;;;;;3.55;1.23;;;;;;;;;;5052062;28;20331;-67
2022/07/27 08:25:32;;;;;;;4.50;1.08;;;;;;;;;;5053588;28;20232;-66
2022/07/27 08:27:58;;;;;;;3.88;0.95;;;;;;;;;;5054244;28;20691;-67
2022/07/27 08:30:23;;;;;;;8.82;1.20;;;;;;;;;;5053472;28;20212;-67
2022/07/27 08:32:58;;;;;;;8.52;1.38;;;;;;;;;;5051534;28;20197;-67
2022/07/27 08:35:24;;;;;;;4.18;1.08;;;;;;;;;;5056819;28;20188;-66
2022/07/27 08:37:50;;;;;;;6.60;1.10;;;;;;;;;;5050094;28;20254;-67
2022/07/27 08:40:15;;;;;;;6.55;1.75;;;;;;;;;;5055760;28;20204;-67
2022/07/27 08:42:42;;;;;;;3.88;1.00;;;;;;;;;;5055330;28;20497;-68
2022/07/27 08:45:09;;;;;;;6.60;1.20;;;;;;;;;;5054737;28;20200;-67
2022/07/27 08:47:37;;;;;;;3.88;1.02;;;;;;;;;;5056008;28;20267;-70
2022/07/27 08:50:03;;;;;;;3.00;1.00;;;;;;;;;;5057450;28;20255;-68
2022/07/27 08:52:28;;;;;;;3.35;1.33;;;;;;;;;;5053126;28;20180;-67
2022/07/27 08:54:54;;;;;;;7.70;1.00;;;;;;;;;;5052301;28;20189;-66
2022/07/27 08:57:20;;;;;;;6.85;1.00;;;;;;;;;;5047528;28;20304;-67
2022/07/27 08:59:45;;;;;;;6.07;1.63;;;;;;;;;;5053498;28;20178;-66
2022/07/27 09:02:12;;;;;;;6.13;1.23;;;;;;;;;;5052784;28;20676;-67
2022/07/27 09:04:41;;;;;;;6.90;1.08;;;;;;;;;;5055445;28;20582;-68
2022/07/27 09:07:06;;;;;;;6.72;1.00;;;;;;;;;;5056070;28;20184;-66
2022/07/27 09:09:45;;;;;;;3.97;0.70;;;;;;;;;;5061570;28;20572;-66
2022/07/27 09:12:11;;;;;;;3.80;0.77;;;;;;;;;;4352923;28;10000800;-66
2022/07/27 09:14:39;;;;;;;4.20;0.90;;;;;;;;;;5052372;28;20267;-68
2022/07/27 09:17:24;;;;;;;4.72;1.15;;;;;;;;;;5050457;28;20177;-68
2022/07/27 09:20:00;;;;;;;2.70;0.82;;;;;;;;;;5051293;28;20192;-68
2022/07/27 09:22:39;;;;;;;7.85;1.20;;;;;;;;;;5048182;28;20555;-67
2022/07/27 09:25:05;;;;;;;5.93;1.00;;;;;;;;;;5050089;28;20529;-67
2022/07/27 09:27:31;;;;;;;3.10;0.80;;;;;;;;;;5050827;28;20188;-67
2022/07/27 09:30:03;;;;;;;3.40;0.80;;;;;;;;;;5052110;28;20447;-66
2022/07/27 09:32:29;;;;;;;5.70;0.80;;;;;;;;;;5044876;28;20225;-67
2022/07/27 09:34:54;;;;;;;4.75;1.00;;;;;;;;;;5049766;28;20633;-67
2022/07/27 09:37:25;;;;;;;3.22;1.38;;;;;;;;;;5051174;28;20275;-69
2022/07/27 09:40:10;;;;;;;4.70;0.93;;;;;;;;;;5053192;28;20204;-67
2022/07/27 09:42:35;;;;;;;6.43;0.93;;;;;;;;;;5047932;28;20200;-67
2022/07/27 09:45:00;;;;;;;5.45;1.25;;;;;;;;;;5055618;28;20237;-66
2022/07/27 09:47:28;;;;;;;3.70;1.05;;;;;;;;;;5047192;28;20189;-66
2022/07/27 09:49:55;;;;;;;4.47;0.80;;;;;;;;;;5050474;28;20279;-66
2022/07/27 09:52:30;;;;;;;2.75;0.65;;;;;;;;;;5045219;28;20564;-66
2022/07/27 09:55:03;;;;;;;6.78;0.90;;;;;;;;;;5046781;28;20523;-66
2022/07/27 09:57:29;;;;;;;4.22;1.05;;;;;;;;;;5052802;28;20185;-65
2022/07/27 10:00:12;;;;;;;5.22;0.90;;;;;;;;;;5047747;28;20260;-66
2022/07/27 10:02:38;;;;;;;8.77;2.17;;;;;;;;;;5048389;28;20196;-66
2022/07/27 10:05:05;;;;;;;6.43;0.75;;;;;;;;;;5047697;28;20268;-66
2022/07/27 10:07:31;;;;;;;4.10;1.30;;;;;;;;;;5049887;28;20189;-67
2022/07/27 10:09:56;;;;;;;2.42;0.70;;;;;;;;;;5050497;28;20708;-67
2022/07/27 10:12:22;;;;;;;6.47;0.88;;;;;;;;;;5052353;28;20205;-66
2022/07/27 10:14:47;;;;;;;3.65;0.70;;;;;;;;;;5051446;28;20197;-67
2022/07/27 10:17:13;;;;;;;5.47;1.42;;;;;;;;;;5055961;28;20194;-66
2022/07/27 10:19:45;;;;;;;2.60;0.90;;;;;;;;;;5048439;28;20190;-66
2022/07/27 10:22:12;;;;;;;4.50;1.20;;;;;;;;;;5047536;28;20654;-67
2022/07/27 10:24:37;;;;;;;5.72;0.90;;;;;;;;;;5052973;28;20256;-66
2022/07/27 10:27:32;;;;;;;5.05;1.10;;;;;;;;;;5052313;28;20570;-67
2022/07/27 10:29:58;;;;;;;10.77;1.00;;;;;;;;;;5038816;28;20304;-65
2022/07/27 10:32:26;;;;;;;5.32;0.85;;;;;;;;;;5050466;28;20284;-68
2022/07/27 10:34:52;;;;;;;4.38;1.15;;;;;;;;;;5045845;28;20646;-68
2022/07/27 10:37:25;;;;;;;4.85;0.95;;;;;;;;;;5050171;28;20190;-67
2022/07/27 10:42:48;;;;;;;3.35;0.80;;;;;;;;;;5052839;28;20334;-66
2022/07/27 10:45:16;;;;;;;1.67;0.55;;;;;;;;;;5054384;28;20211;-66
2022/07/27 10:47:46;;;;;;;3.25;0.80;;;;;;;;;;5053127;28;20802;-66
2022/07/27 10:50:14;;;;;;;2.10;0.73;;;;;;;;;;5052662;28;20695;-67
2022/07/27 10:52:48;;;;;;;2.67;0.65;;;;;;;;;;5056916;28;20193;-68
2022/07/27 10:55:29;;;;;;;2.95;0.80;;;;;;;;;;5050047;28;20683;-68
2022/07/27 10:58:20;;;;;;;3.60;1.23;;;;;;;;;;5050087;28;20196;-69
2022/07/27 11:00:48;;;;;;;2.00;0.73;;;;;;;;;;5053036;28;20216;-67
2022/07/27 11:03:21;;;;;;;1.95;0.90;;;;;;;;;;5053153;28;20560;-66
2022/07/27 11:05:54;;;;;;;5.22;0.90;;;;;;;;;;5049841;28;20182;-66
2022/07/27 11:08:27;;;;;;;2.38;0.90;;;;;;;;;;5056579;28;20569;-66
2022/07/27 11:10:52;;;;;;;1.45;0.60;;;;;;;;;;5052324;28;20212;-72
2022/07/27 11:13:19;;;;;;;4.43;0.98;;;;;;;;;;5052486;28;21304;-69
2022/07/27 11:15:56;;;;;;;3.78;0.70;;;;;;;;;;5053277;28;20625;-67
2022/07/27 11:18:28;;;;;;;3.60;0.82;;;;;;;;;;5051491;28;20185;-66
2022/07/27 11:21:33;;;;;;;4.45;0.80;;;;;;;;;;5052116;28;20207;-65
2022/07/27 11:24:02;;;;;;;3.10;0.60;;;;;;;;;;5055706;28;20181;-67
2022/07/27 11:26:29;;;;;;;1.15;0.63;;;;;;;;;;5057209;28;20184;-67
2022/07/27 11:28:55;;;;;;;1.95;0.60;;;;;;;;;;5051700;28;20290;-66
2022/07/27 11:31:21;;;;;;;2.60;1.00;;;;;;;;;;5057934;28;20250;-65
2022/07/27 11:33:55;;;;;;;1.85;0.60;;;;;;;;;;5056695;28;20234;-65
2022/07/27 11:36:22;;;;;;;1.98;1.02;;;;;;;;;;5052348;28;20239;-65
2022/07/27 11:38:53;;;;;;;3.45;0.90;;;;;;;;;;5055149;28;20204;-65
2022/07/27 11:41:26;;;;;;;3.25;0.70;;;;;;;;;;5048588;28;20181;-65
2022/07/27 11:43:53;;;;;;;2.05;0.80;;;;;;;;;;5059585;28;20203;-71
2022/07/27 11:46:27;;;;;;;5.63;0.80;;;;;;;;;;5058528;28;20189;-65
2022/07/27 11:49:07;;;;;;;3.13;0.77;;;;;;;;;;5061990;28;20194;-66
2022/07/27 11:51:44;;;;;;;7.80;1.20;;;;;;;;;;5050381;28;20178;-68
2022/07/27 11:54:13;;;;;;;5.05;0.93;;;;;;;;;;5053362;28;20180;-67
2022/07/27 11:56:42;;;;;;;2.50;0.93;;;;;;;;;;5052568;28;20181;-68
2022/07/27 11:59:19;;;;;;;5.95;1.13;;;;;;;;;;5056561;28;20192;-67
2022/07/27 12:01:50;;;;;;;5.03;0.90;;;;;;;;;;5052878;28;20188;-69
2022/07/27 12:04:17;;;;;;;6.28;1.50;;;;;;;;;;5049271;28;20186;-69
2022/07/27 12:06:53;;;;;;;10.45;2.00;;;;;;;;;;5050835;28;20801;-76
2022/07/27 12:09:18;;;;;;;6.35;1.15;;;;;;;;;;5057508;28;20205;-70
2022/07/27 12:11:49;;;;;;;4.03;1.27;;;;;;;;;;5058001;28;20370;-68
2022/07/27 12:14:16;;;;;;;4.75;1.13;;;;;;;;;;5060098;28;20212;-73
2022/07/27 12:16:42;;;;;;;5.40;1.25;;;;;;;;;;5054635;28;20177;-69
2022/07/27 12:19:08;;;;;;;6.18;1.30;;;;;;;;;;5057027;28;20215;-69
2022/07/27 12:21:33;;;;;;;4.28;1.30;;;;;;;;;;5057458;28;20661;-73
2022/07/27 12:23:59;;;;;;;6.40;1.27;;;;;;;;;;5057428;28;20188;-70
2022/07/27 12:26:24;;;;;;;2.55;0.98;;;;;;;;;;5048529;28;20188;-68
2022/07/27 12:29:06;;;;;;;3.72;1.02;;;;;;;;;;5049973;28;20185;-69
2022/07/27 12:31:32;;;;;;;2.72;1.20;;;;;;;;;;5052066;28;20209;-69
2022/07/27 12:33:58;;;;;;;4.57;1.10;;;;;;;;;;5053539;28;20213;-70
2022/07/27 12:36:30;;;;;;;6.38;1.27;;;;;;;;;;5053867;28;20220;-68
2022/07/27 12:38:57;;;;;;;8.32;1.70;;;;;;;;;;5059100;28;20254;-66
2022/07/27 12:41:35;;;;;;;5.13;1.38;;;;;;;;;;5056636;28;20235;-69
2022/07/27 12:44:09;;;;;;;3.67;1.27;;;;;;;;;;5056035;28;20577;-71
2022/07/27 12:46:54;;;;;;;3.53;1.05;;;;;;;;;;5057128;28;20254;-72
2022/07/27 12:49:23;;;;;;;4.57;1.20;;;;;;;;;;5055525;28;20205;-69
2022/07/27 12:51:49;;;;;;;5.47;1.45;;;;;;;;;;5048955;28;20657;-69
2022/07/27 12:54:15;;;;;;;3.85;1.10;;;;;;;;;;5052709;28;20211;-68
2022/07/27 12:56:40;;;;;;;4.18;1.08;;;;;;;;;;5054071;28;20575;-69
2022/07/27 12:59:06;;;;;;;3.30;1.02;;;;;;;;;;5051033;28;20625;-66
2022/07/27 13:01:31;;;;;;;2.97;0.88;;;;;;;;;;5049274;28;20232;-68
2022/07/27 13:03:56;;;;;;;5.88;1.30;;;;;;;;;;5054949;28;20436;-67
2022/07/27 13:06:22;;;;;;;3.15;0.80;;;;;;;;;;5051410;28;20177;-67
2022/07/27 13:08:47;;;;;;;3.47;0.93;;;;;;;;;;5052855;28;20183;-68
2022/07/27 13:11:12;;;;;;;2.60;1.10;;;;;;;;;;5048434;28;20259;-68
2022/07/27 13:13:38;;;;;;;4.43;1.13;;;;;;;;;;5052523;28;20180;-70
2022/07/27 13:16:04;;;;;;;4.03;1.13;;;;;;;;;;5055426;28;20177;-68
2022/07/27 13:18:29;;;;;;;4.97;0.95;;;;;;;;;;5052819;28;20188;-67
2022/07/27 13:20:54;;;;;;;3.45;1.10;;;;;;;;;;5048654;28;20177;-68
2022/07/27 13:23:20;;;;;;;5.50;1.15;;;;;;;;;;5050670;28;20188;-68
2022/07/27 13:25:45;;;;;;;5.07;1.10;;;;;;;;;;5051071;28;20749;-67
2022/07/27 13:28:11;;;;;;;2.38;0.93;;;;;;;;;;4355027;28;10000621;-67
2022/07/27 13:30:36;;;;;;;3.85;0.82;;;;;;;;;;5057142;28;20208;-67
2022/07/27 13:33:02;;;;;;;7.10;1.27;;;;;;;;;;5049201;28;20540;-67
2022/07/27 13:35:27;;;;;;;4.80;1.10;;;;;;;;;;5050708;28;20217;-67
2022/07/27 13:37:53;;;;;;;4.35;1.20;;;;;;;;;;5050595;28;20188;-67
2022/07/27 13:40:18;;;;;;;5.32;1.02;;;;;;;;;;5058685;28;20636;-67
2022/07/27 13:42:43;;;;;;;4.22;0.93;;;;;;;;;;5049177;28;20199;-67
2022/07/27 13:45:09;;;;;;;5.18;1.20;;;;;;;;;;5050172;28;20720;-69
2022/07/27 13:47:35;;;;;;;4.95;1.00;;;;;;;;;;5046340;28;20243;-67
2022/07/27 13:50:00;;;;;;;4.03;1.20;;;;;;;;;;5049272;28;20211;-67
2022/07/27 13:52:26;;;;;;;1.75;0.80;;;;;;;;;;5047680;28;20212;-68
2022/07/27 13:54:51;;;;;;;2.95;0.80;;;;;;;;;;5060829;28;20194;-67
2022/07/27 13:57:17;;;;;;;2.92;1.00;;;;;;;;;;5049871;28;20563;-67
2022/07/27 13:59:42;;;;;;;4.60;0.80;;;;;;;;;;5047093;28;20181;-69
2022/07/27 14:02:08;;;;;;;2.53;0.90;;;;;;;;;;5047502;28;20184;-69
2022/07/27 14:04:36;;;;;;;2.97;0.60;;;;;;;;;;5048564;28;20188;-70
2022/07/27 14:07:02;;;;;;;4.82;0.68;;;;;;;;;;5045981;28;20212;-68
2022/07/27 14:12:11;;;;;;;2.22;0.90;;;;;;;;;;5052065;28;20196;-67
2022/07/27 14:14:37;;;;;;;2.88;0.88;;;;;;;;;;5051050;28;20189;-68
2022/07/27 14:17:02;;;;;;;1.92;0.70;;;;;;;;;;5055219;28;20192;-68
2022/07/27 14:19:29;;;;;;;6.55;0.90;;;;;;;;;;5061375;28;20195;-70
2022/07/27 14:21:54;;;;;;;2.35;0.75;;;;;;;;;;5056994;28;20188;-68
2022/07/27 14:24:20;;;;;;;3.38;0.90;;;;;;;;;;5052620;28;20229;-69
2022/07/27 14:26:46;;;;;;;4.88;0.90;;;;;;;;;;5054154;28;20184;-68
2022/07/27 14:29:11;;;;;;;3.97;0.70;;;;;;;;;;5057933;28;21195;-67
2022/07/27 14:31:36;;;;;;;3.67;1.05;;;;;;;;;;5057408;28;20254;-68
2022/07/27 14:34:02;;;;;;;4.38;0.90;;;;;;;;;;5052676;28;20213;-65
2022/07/27 14:36:27;;;;;;;2.30;0.80;;;;;;;;;;5054300;28;20276;-66
2022/07/27 14:38:53;;;;;;;4.97;0.82;;;;;;;;;;5051476;28;20216;-67
2022/07/27 14:41:18;;;;;;;4.47;1.23;;;;;;;;;;5056070;28;20268;-67
2022/07/27 14:43:43;;;;;;;2.78;0.82;;;;;;;;;;5052721;28;20695;-69
2022/07/27 14:46:09;;;;;;;3.33;1.10;;;;;;;;;;5053445;28;20186;-68
2022/07/27 14:48:34;;;;;;;2.95;0.70;;;;;;;;;;5056632;28;20185;-67
2022/07/27 14:51:00;;;;;;;2.95;0.90;;;;;;;;;;5056998;28;20216;-67
2022/07/27 14:53:25;;;;;;;3.08;1.00;;;;;;;;;;5052538;28;20242;-67